sensor_id;sensor_type;location;lat;lon;timestamp;temperature;humidity
67603;DHT22;54417;47.454;18.918;2023-10-13T00:00:20;12.95;97.12
67603;DHT22;54417;47.454;18.918;2023-10-13T00:05:33;12.83;97.41
67603;DHT22;54417;47.454;18.918;2023-10-13T00:10:42;12.78;97.43
67603;DHT22;54417;47.454;18.918;2023-10-13T00:15:51;12.65;97.67
67603;DHT22;54417;47.454;18.918;2023-10-13T00:21:07;12.63;97.87
67603;DHT22;54417;47.454;18.918;2023-10-13T00:26:21;12.59;98.20
67603;DHT22;54417;47.454;18.918;2023-10-13T00:31:37;12.73;99.07
67603;DHT22;54417;47.454;18.918;2023-10-13T00:36:50;12.68;98.54
67603;DHT22;54417;47.454;18.918;2023-10-13T00:42:19;12.72;98.97
67603;DHT22;54417;47.454;18.918;2023-10-13T00:47:33;12.70;98.76
67603;DHT22;54417;47.454;18.918;2023-10-13T00:52:47;12.75;98.78
67603;DHT22;54417;47.454;18.918;2023-10-13T00:57:59;12.76;98.58
67603;DHT22;54417;47.454;18.918;2023-10-13T01:03:10;12.78;98.50
67603;DHT22;54417;47.454;18.918;2023-10-13T01:08:32;12.85;98.72
67603;DHT22;54417;47.454;18.918;2023-10-13T01:13:45;12.92;98.53
67603;DHT22;54417;47.454;18.918;2023-10-13T01:18:58;12.85;98.24
67603;DHT22;54417;47.454;18.918;2023-10-13T01:24:13;12.92;98.60
67603;DHT22;54417;47.454;18.918;2023-10-13T01:29:33;12.96;98.41
67603;DHT22;54417;47.454;18.918;2023-10-13T01:34:42;12.95;98.35
67603;DHT22;54417;47.454;18.918;2023-10-13T01:39:56;12.99;98.42
67603;DHT22;54417;47.454;18.918;2023-10-13T01:45:06;13.06;98.31
67603;DHT22;54417;47.454;18.918;2023-10-13T01:50:15;13.00;97.83
67603;DHT22;54417;47.454;18.918;2023-10-13T01:55:29;13.02;98.15
67603;DHT22;54417;47.454;18.918;2023-10-13T02:00:46;13.08;98.10
67603;DHT22;54417;47.454;18.918;2023-10-13T02:05:56;13.18;98.02
67603;DHT22;54417;47.454;18.918;2023-10-13T02:11:13;13.28;97.54
67603;DHT22;54417;47.454;18.918;2023-10-13T02:16:26;13.27;97.48
67603;DHT22;54417;47.454;18.918;2023-10-13T02:21:35;13.33;97.22
67603;DHT22;54417;47.454;18.918;2023-10-13T02:26:49;13.33;97.30
67603;DHT22;54417;47.454;18.918;2023-10-13T02:31:58;13.27;97.13
67603;DHT22;54417;47.454;18.918;2023-10-13T02:37:12;13.37;97.07
67603;DHT22;54417;47.454;18.918;2023-10-13T02:42:22;13.44;97.03
67603;DHT22;54417;47.454;18.918;2023-10-13T02:47:31;13.48;96.64
67603;DHT22;54417;47.454;18.918;2023-10-13T02:52:40;13.53;96.67
67603;DHT22;54417;47.454;18.918;2023-10-13T02:57:50;13.57;96.22
67603;DHT22;54417;47.454;18.918;2023-10-13T03:03:03;13.68;96.19
67603;DHT22;54417;47.454;18.918;2023-10-13T03:08:13;13.75;95.95
67603;DHT22;54417;47.454;18.918;2023-10-13T03:13:34;13.85;95.47
67603;DHT22;54417;47.454;18.918;2023-10-13T03:18:44;13.81;95.44
67603;DHT22;54417;47.454;18.918;2023-10-13T03:24:01;13.83;95.44
67603;DHT22;54417;47.454;18.918;2023-10-13T03:29:15;13.83;95.40
67603;DHT22;54417;47.454;18.918;2023-10-13T03:34:29;13.79;95.48
67603;DHT22;54417;47.454;18.918;2023-10-13T03:39:38;13.90;95.55
67603;DHT22;54417;47.454;18.918;2023-10-13T03:44:53;13.93;95.57
67603;DHT22;54417;47.454;18.918;2023-10-13T03:50:03;14.08;95.39
67603;DHT22;54417;47.454;18.918;2023-10-13T03:55:23;14.09;95.82
67603;DHT22;54417;47.454;18.918;2023-10-13T04:00:36;14.03;96.21
67603;DHT22;54417;47.454;18.918;2023-10-13T04:05:44;14.14;96.08
67603;DHT22;54417;47.454;18.918;2023-10-13T04:11:09;14.24;96.24
67603;DHT22;54417;47.454;18.918;2023-10-13T04:16:36;14.29;96.19
67603;DHT22;54417;47.454;18.918;2023-10-13T04:21:46;14.37;95.93
67603;DHT22;54417;47.454;18.918;2023-10-13T04:27:05;14.36;95.68
67603;DHT22;54417;47.454;18.918;2023-10-13T04:32:32;14.47;95.57
67603;DHT22;54417;47.454;18.918;2023-10-13T04:37:46;14.48;95.50
67603;DHT22;54417;47.454;18.918;2023-10-13T04:43:02;14.43;95.91
67603;DHT22;54417;47.454;18.918;2023-10-13T04:48:33;14.38;95.80
67603;DHT22;54417;47.454;18.918;2023-10-13T04:53:48;14.34;96.32
67603;DHT22;54417;47.454;18.918;2023-10-13T04:59:07;14.37;96.11
67603;DHT22;54417;47.454;18.918;2023-10-13T05:04:44;14.30;96.56
67603;DHT22;54417;47.454;18.918;2023-10-13T05:10:10;14.36;96.54
67603;DHT22;54417;47.454;18.918;2023-10-13T05:15:31;14.34;96.32
67603;DHT22;54417;47.454;18.918;2023-10-13T05:20:59;14.37;96.50
67603;DHT22;54417;47.454;18.918;2023-10-13T05:26:25;14.40;96.45
67603;DHT22;54417;47.454;18.918;2023-10-13T05:31:51;14.44;96.47
67603;DHT22;54417;47.454;18.918;2023-10-13T05:37:14;14.47;96.38
67603;DHT22;54417;47.454;18.918;2023-10-13T05:42:40;14.51;95.73
67603;DHT22;54417;47.454;18.918;2023-10-13T05:48:06;14.63;95.95
67603;DHT22;54417;47.454;18.918;2023-10-13T05:53:28;14.65;96.12
67603;DHT22;54417;47.454;18.918;2023-10-13T05:58:59;14.82;95.42
67603;DHT22;54417;47.454;18.918;2023-10-13T06:04:26;14.96;95.50
67603;DHT22;54417;47.454;18.918;2023-10-13T06:09:56;15.11;94.91
67603;DHT22;54417;47.454;18.918;2023-10-13T06:15:22;15.22;94.15
67603;DHT22;54417;47.454;18.918;2023-10-13T06:20:48;15.38;94.15
67603;DHT22;54417;47.454;18.918;2023-10-13T06:26:24;15.39;93.87
67603;DHT22;54417;47.454;18.918;2023-10-13T06:31:45;15.44;93.84
67603;DHT22;54417;47.454;18.918;2023-10-13T06:36:55;15.49;93.84
67603;DHT22;54417;47.454;18.918;2023-10-13T06:42:05;15.42;93.84
67603;DHT22;54417;47.454;18.918;2023-10-13T06:47:15;15.53;93.87
67603;DHT22;54417;47.454;18.918;2023-10-13T06:52:28;15.57;93.77
67603;DHT22;54417;47.454;18.918;2023-10-13T06:57:39;15.67;93.55
67603;DHT22;54417;47.454;18.918;2023-10-13T07:02:45;15.78;93.31
67603;DHT22;54417;47.454;18.918;2023-10-13T07:07:55;15.87;93.01
67603;DHT22;54417;47.454;18.918;2023-10-13T07:13:11;15.96;92.94
67603;DHT22;54417;47.454;18.918;2023-10-13T07:18:16;16.01;93.00
67603;DHT22;54417;47.454;18.918;2023-10-13T07:23:27;16.11;93.10
67603;DHT22;54417;47.454;18.918;2023-10-13T07:28:38;16.38;92.44
67603;DHT22;54417;47.454;18.918;2023-10-13T07:33:46;16.69;91.63
67603;DHT22;54417;47.454;18.918;2023-10-13T07:38:55;16.90;91.55
67603;DHT22;54417;47.454;18.918;2023-10-13T07:44:41;17.08;90.18
67603;DHT22;54417;47.454;18.918;2023-10-13T07:49:54;17.28;90.15
67603;DHT22;54417;47.454;18.918;2023-10-13T07:55:04;17.49;89.57
67603;DHT22;54417;47.454;18.918;2023-10-13T08:00:29;17.72;89.14
67603;DHT22;54417;47.454;18.918;2023-10-13T08:05:55;17.97;87.51
67603;DHT22;54417;47.454;18.918;2023-10-13T08:11:13;18.33;86.54
67603;DHT22;54417;47.454;18.918;2023-10-13T08:16:33;18.69;84.95
67603;DHT22;54417;47.454;18.918;2023-10-13T08:22:02;18.99;83.33
67603;DHT22;54417;47.454;18.918;2023-10-13T08:27:26;19.26;82.57
67603;DHT22;54417;47.454;18.918;2023-10-13T08:32:57;19.50;81.25
67603;DHT22;54417;47.454;18.918;2023-10-13T08:38:11;19.63;80.41
67603;DHT22;54417;47.454;18.918;2023-10-13T08:43:41;19.84;80.23
67603;DHT22;54417;47.454;18.918;2023-10-13T08:48:55;20.15;79.10
67603;DHT22;54417;47.454;18.918;2023-10-13T08:54:17;20.42;76.57
67603;DHT22;54417;47.454;18.918;2023-10-13T08:59:42;20.46;76.44
67603;DHT22;54417;47.454;18.918;2023-10-13T09:05:02;20.46;77.55
67603;DHT22;54417;47.454;18.918;2023-10-13T09:10:33;20.74;76.17
67603;DHT22;54417;47.454;18.918;2023-10-13T09:15:52;20.95;76.28
67603;DHT22;54417;47.454;18.918;2023-10-13T09:21:11;21.15;76.17
67603;DHT22;54417;47.454;18.918;2023-10-13T09:26:40;21.25;74.07
67603;DHT22;54417;47.454;18.918;2023-10-13T09:31:46;21.75;73.44
67603;DHT22;54417;47.454;18.918;2023-10-13T09:37:00;21.92;72.72
67603;DHT22;54417;47.454;18.918;2023-10-13T09:42:11;21.85;72.00
67603;DHT22;54417;47.454;18.918;2023-10-13T09:47:24;22.07;72.17
67603;DHT22;54417;47.454;18.918;2023-10-13T09:52:43;22.40;71.65
67603;DHT22;54417;47.454;18.918;2023-10-13T09:57:58;22.30;70.95
67603;DHT22;54417;47.454;18.918;2023-10-13T10:03:17;21.98;72.12
67603;DHT22;54417;47.454;18.918;2023-10-13T10:08:39;21.83;72.69
67603;DHT22;54417;47.454;18.918;2023-10-13T10:14:06;21.76;73.15
67603;DHT22;54417;47.454;18.918;2023-10-13T10:19:11;21.77;73.94
67603;DHT22;54417;47.454;18.918;2023-10-13T10:24:22;21.77;73.06
67603;DHT22;54417;47.454;18.918;2023-10-13T10:29:37;21.98;73.71
67603;DHT22;54417;47.454;18.918;2023-10-13T10:34:47;22.14;73.23
67603;DHT22;54417;47.454;18.918;2023-10-13T10:39:52;22.30;72.59
67603;DHT22;54417;47.454;18.918;2023-10-13T10:45:08;22.40;73.01
67603;DHT22;54417;47.454;18.918;2023-10-13T10:50:25;22.73;71.82
67603;DHT22;54417;47.454;18.918;2023-10-13T10:55:43;22.89;71.00
67603;DHT22;54417;47.454;18.918;2023-10-13T11:01:04;23.30;69.01
67603;DHT22;54417;47.454;18.918;2023-10-13T11:06:17;23.75;68.84
67603;DHT22;54417;47.454;18.918;2023-10-13T11:11:30;24.15;68.30
67603;DHT22;54417;47.454;18.918;2023-10-13T11:16:47;24.20;67.78
67603;DHT22;54417;47.454;18.918;2023-10-13T11:22:10;24.63;66.66
67603;DHT22;54417;47.454;18.918;2023-10-13T11:27:19;25.15;64.75
67603;DHT22;54417;47.454;18.918;2023-10-13T11:32:28;25.53;61.61
67603;DHT22;54417;47.454;18.918;2023-10-13T11:37:37;26.00;62.14
67603;DHT22;54417;47.454;18.918;2023-10-13T11:42:47;26.08;60.27
67603;DHT22;54417;47.454;18.918;2023-10-13T11:47:56;26.35;60.38
67603;DHT22;54417;47.454;18.918;2023-10-13T11:53:08;26.67;58.50
67603;DHT22;54417;47.454;18.918;2023-10-13T11:58:16;26.98;58.65
67603;DHT22;54417;47.454;18.918;2023-10-13T12:03:20;26.99;56.08
67603;DHT22;54417;47.454;18.918;2023-10-13T12:08:46;27.22;57.89
67603;DHT22;54417;47.454;18.918;2023-10-13T12:14:00;27.36;53.97
67603;DHT22;54417;47.454;18.918;2023-10-13T12:19:20;27.27;49.40
67603;DHT22;54417;47.454;18.918;2023-10-13T12:24:31;27.37;51.34
67603;DHT22;54417;47.454;18.918;2023-10-13T12:29:49;27.24;50.89
67603;DHT22;54417;47.454;18.918;2023-10-13T12:34:59;27.14;52.02
67603;DHT22;54417;47.454;18.918;2023-10-13T12:40:24;26.99;50.88
67603;DHT22;54417;47.454;18.918;2023-10-13T12:45:52;26.80;51.78
67603;DHT22;54417;47.454;18.918;2023-10-13T12:51:21;26.47;52.78
67603;DHT22;54417;47.454;18.918;2023-10-13T12:56:47;26.30;52.83
67603;DHT22;54417;47.454;18.918;2023-10-13T13:02:03;26.03;53.08
67603;DHT22;54417;47.454;18.918;2023-10-13T13:07:15;26.07;53.13
67603;DHT22;54417;47.454;18.918;2023-10-13T13:12:23;26.10;52.57
67603;DHT22;54417;47.454;18.918;2023-10-13T13:17:34;26.01;52.69
67603;DHT22;54417;47.454;18.918;2023-10-13T13:22:44;26.01;52.23
67603;DHT22;54417;47.454;18.918;2023-10-13T13:27:52;25.98;52.43
67603;DHT22;54417;47.454;18.918;2023-10-13T13:32:57;25.80;53.00
67603;DHT22;54417;47.454;18.918;2023-10-13T13:38:06;25.79;53.44
67603;DHT22;54417;47.454;18.918;2023-10-13T13:43:24;25.76;52.79
67603;DHT22;54417;47.454;18.918;2023-10-13T13:49:00;25.66;50.68
67603;DHT22;54417;47.454;18.918;2023-10-13T13:54:09;25.67;52.23
67603;DHT22;54417;47.454;18.918;2023-10-13T13:59:17;25.63;51.00
67603;DHT22;54417;47.454;18.918;2023-10-13T14:04:24;25.58;52.66
67603;DHT22;54417;47.454;18.918;2023-10-13T14:09:33;25.58;53.68
67603;DHT22;54417;47.454;18.918;2023-10-13T14:14:48;25.50;53.00
67603;DHT22;54417;47.454;18.918;2023-10-13T14:20:06;25.28;54.90
67603;DHT22;54417;47.454;18.918;2023-10-13T14:25:23;25.03;53.90
67603;DHT22;54417;47.454;18.918;2023-10-13T14:30:36;24.76;57.71
67603;DHT22;54417;47.454;18.918;2023-10-13T14:35:46;24.61;57.16
67603;DHT22;54417;47.454;18.918;2023-10-13T14:40:56;24.35;58.80
67603;DHT22;54417;47.454;18.918;2023-10-13T14:46:08;24.10;60.96
67603;DHT22;54417;47.454;18.918;2023-10-13T14:51:18;23.86;61.75
67603;DHT22;54417;47.454;18.918;2023-10-13T14:56:27;23.57;62.24
67603;DHT22;54417;47.454;18.918;2023-10-13T15:01:36;23.28;63.00
67603;DHT22;54417;47.454;18.918;2023-10-13T15:06:46;22.89;65.45
67603;DHT22;54417;47.454;18.918;2023-10-13T15:11:55;22.51;68.52
67603;DHT22;54417;47.454;18.918;2023-10-13T15:17:03;22.11;69.41
67603;DHT22;54417;47.454;18.918;2023-10-13T15:22:10;21.79;71.66
67603;DHT22;54417;47.454;18.918;2023-10-13T15:27:24;21.34;72.43
67603;DHT22;54417;47.454;18.918;2023-10-13T15:32:36;20.92;74.07
67603;DHT22;54417;47.454;18.918;2023-10-13T15:37:52;20.54;75.15
67603;DHT22;54417;47.454;18.918;2023-10-13T15:43:02;20.25;76.29
67603;DHT22;54417;47.454;18.918;2023-10-13T15:48:12;19.96;77.92
67603;DHT22;54417;47.454;18.918;2023-10-13T15:53:28;19.70;78.54
67603;DHT22;54417;47.454;18.918;2023-10-13T15:58:38;19.41;79.80
67603;DHT22;54417;47.454;18.918;2023-10-13T16:03:47;19.13;80.15
67603;DHT22;54417;47.454;18.918;2023-10-13T16:08:59;18.84;82.17
67603;DHT22;54417;47.454;18.918;2023-10-13T16:14:09;18.62;82.37
67603;DHT22;54417;47.454;18.918;2023-10-13T16:19:22;18.37;82.73
67603;DHT22;54417;47.454;18.918;2023-10-13T16:24:34;18.16;82.84
67603;DHT22;54417;47.454;18.918;2023-10-13T16:29:43;17.96;83.53
67603;DHT22;54417;47.454;18.918;2023-10-13T16:34:52;17.87;83.26
67603;DHT22;54417;47.454;18.918;2023-10-13T16:40:02;17.78;83.13
67603;DHT22;54417;47.454;18.918;2023-10-13T16:45:13;17.62;82.67
67603;DHT22;54417;47.454;18.918;2023-10-13T16:50:28;17.41;83.51
67603;DHT22;54417;47.454;18.918;2023-10-13T16:55:38;17.24;83.95
67603;DHT22;54417;47.454;18.918;2023-10-13T17:00:49;17.10;84.43
67603;DHT22;54417;47.454;18.918;2023-10-13T17:06:00;16.95;84.96
67603;DHT22;54417;47.454;18.918;2023-10-13T17:11:12;16.84;85.14
67603;DHT22;54417;47.454;18.918;2023-10-13T17:16:23;16.75;84.32
67603;DHT22;54417;47.454;18.918;2023-10-13T17:21:27;16.67;85.49
67603;DHT22;54417;47.454;18.918;2023-10-13T17:26:38;16.56;85.99
67603;DHT22;54417;47.454;18.918;2023-10-13T17:31:47;16.36;86.68
67603;DHT22;54417;47.454;18.918;2023-10-13T17:36:56;16.19;87.01
67603;DHT22;54417;47.454;18.918;2023-10-13T17:42:04;16.12;86.09
67603;DHT22;54417;47.454;18.918;2023-10-13T17:47:13;16.33;84.05
67603;DHT22;54417;47.454;18.918;2023-10-13T17:52:25;16.21;85.35
67603;DHT22;54417;47.454;18.918;2023-10-13T17:57:36;15.98;86.51
67603;DHT22;54417;47.454;18.918;2023-10-13T18:02:46;15.78;87.38
67603;DHT22;54417;47.454;18.918;2023-10-13T18:07:55;15.66;88.16
67603;DHT22;54417;47.454;18.918;2023-10-13T18:13:07;15.69;87.50
67603;DHT22;54417;47.454;18.918;2023-10-13T18:18:16;15.64;87.58
67603;DHT22;54417;47.454;18.918;2023-10-13T18:23:25;15.64;87.98
67603;DHT22;54417;47.454;18.918;2023-10-13T18:28:35;15.59;88.25
67603;DHT22;54417;47.454;18.918;2023-10-13T18:33:44;15.46;87.99
67603;DHT22;54417;47.454;18.918;2023-10-13T18:38:48;15.36;89.02
67603;DHT22;54417;47.454;18.918;2023-10-13T18:43:58;15.47;88.74
67603;DHT22;54417;47.454;18.918;2023-10-13T18:49:07;15.94;87.34
67603;DHT22;54417;47.454;18.918;2023-10-13T18:54:18;16.02;87.07
67603;DHT22;54417;47.454;18.918;2023-10-13T18:59:28;15.90;87.49
67603;DHT22;54417;47.454;18.918;2023-10-13T19:04:37;15.96;87.60
67603;DHT22;54417;47.454;18.918;2023-10-13T19:09:47;15.67;88.33
67603;DHT22;54417;47.454;18.918;2023-10-13T19:14:57;15.39;89.08
67603;DHT22;54417;47.454;18.918;2023-10-13T19:20:07;15.18;89.49
67603;DHT22;54417;47.454;18.918;2023-10-13T19:25:23;15.08;90.83
67603;DHT22;54417;47.454;18.918;2023-10-13T19:30:39;15.23;90.80
67603;DHT22;54417;47.454;18.918;2023-10-13T19:35:49;15.28;90.25
67603;DHT22;54417;47.454;18.918;2023-10-13T19:40:58;15.23;91.08
67603;DHT22;54417;47.454;18.918;2023-10-13T19:46:08;15.13;90.83
67603;DHT22;54417;47.454;18.918;2023-10-13T19:51:17;14.99;91.62
67603;DHT22;54417;47.454;18.918;2023-10-13T19:56:33;14.84;92.10
67603;DHT22;54417;47.454;18.918;2023-10-13T20:01:39;14.67;91.75
67603;DHT22;54417;47.454;18.918;2023-10-13T20:06:50;14.57;93.06
67603;DHT22;54417;47.454;18.918;2023-10-13T20:12:02;14.50;93.12
67603;DHT22;54417;47.454;18.918;2023-10-13T20:17:12;14.37;93.44
67603;DHT22;54417;47.454;18.918;2023-10-13T20:22:21;14.50;93.66
67603;DHT22;54417;47.454;18.918;2023-10-13T20:27:30;14.48;93.50
67603;DHT22;54417;47.454;18.918;2023-10-13T20:32:40;14.45;93.32
67603;DHT22;54417;47.454;18.918;2023-10-13T20:37:50;14.37;93.31
67603;DHT22;54417;47.454;18.918;2023-10-13T20:43:00;14.36;93.98
67603;DHT22;54417;47.454;18.918;2023-10-13T20:48:06;14.24;93.59
67603;DHT22;54417;47.454;18.918;2023-10-13T20:53:17;14.19;93.33
67603;DHT22;54417;47.454;18.918;2023-10-13T20:58:25;14.06;93.56
67603;DHT22;54417;47.454;18.918;2023-10-13T21:03:36;13.90;93.81
67603;DHT22;54417;47.454;18.918;2023-10-13T21:08:46;13.83;94.34
67603;DHT22;54417;47.454;18.918;2023-10-13T21:13:53;13.83;94.39
67603;DHT22;54417;47.454;18.918;2023-10-13T21:19:03;13.71;94.00
67603;DHT22;54417;47.454;18.918;2023-10-13T21:24:12;13.69;93.67
67603;DHT22;54417;47.454;18.918;2023-10-13T21:29:16;13.65;93.61
67603;DHT22;54417;47.454;18.918;2023-10-13T21:34:26;13.62;95.20
67603;DHT22;54417;47.454;18.918;2023-10-13T21:39:37;13.59;94.30
67603;DHT22;54417;47.454;18.918;2023-10-13T21:44:55;13.40;93.88
67603;DHT22;54417;47.454;18.918;2023-10-13T21:50:00;13.33;95.18
67603;DHT22;54417;47.454;18.918;2023-10-13T21:55:11;13.33;95.41
67603;DHT22;54417;47.454;18.918;2023-10-13T22:00:24;13.24;95.44
67603;DHT22;54417;47.454;18.918;2023-10-13T22:06:04;13.33;96.66
67603;DHT22;54417;47.454;18.918;2023-10-13T22:11:19;13.28;96.87
67603;DHT22;54417;47.454;18.918;2023-10-13T22:16:23;13.27;96.69
67603;DHT22;54417;47.454;18.918;2023-10-13T22:21:34;13.16;96.85
67603;DHT22;54417;47.454;18.918;2023-10-13T22:26:44;13.23;96.78
67603;DHT22;54417;47.454;18.918;2023-10-13T22:31:53;13.14;96.43
67603;DHT22;54417;47.454;18.918;2023-10-13T22:36:59;13.04;96.61
67603;DHT22;54417;47.454;18.918;2023-10-13T22:42:12;12.95;96.08
67603;DHT22;54417;47.454;18.918;2023-10-13T22:47:16;12.83;96.82
67603;DHT22;54417;47.454;18.918;2023-10-13T22:52:26;12.79;97.08
67603;DHT22;54417;47.454;18.918;2023-10-13T22:57:35;12.75;97.21
67603;DHT22;54417;47.454;18.918;2023-10-13T23:02:39;12.79;96.77
67603;DHT22;54417;47.454;18.918;2023-10-13T23:07:49;12.85;96.89
67603;DHT22;54417;47.454;18.918;2023-10-13T23:13:08;12.78;96.60
67603;DHT22;54417;47.454;18.918;2023-10-13T23:18:17;12.66;96.27
67603;DHT22;54417;47.454;18.918;2023-10-13T23:23:28;12.48;96.08
67603;DHT22;54417;47.454;18.918;2023-10-13T23:28:37;12.35;96.30
67603;DHT22;54417;47.454;18.918;2023-10-13T23:33:46;12.22;96.52
67603;DHT22;54417;47.454;18.918;2023-10-13T23:38:56;12.17;96.41
67603;DHT22;54417;47.454;18.918;2023-10-13T23:44:07;12.05;97.02
67603;DHT22;54417;47.454;18.918;2023-10-13T23:49:21;12.07;97.67
67603;DHT22;54417;47.454;18.918;2023-10-13T23:54:28;12.02;97.81
67603;DHT22;54417;47.454;18.918;2023-10-13T23:59:47;11.98;97.50
